Pagrindinis puslapis
METAR-TAF:

METAR-TAF

Oro uostai :

Subic Bay, Filipinai

platuma: 14-48N, ilguma: 120-16E, Aukštis: 18 m

Dabartinis oras

Ataskaita buvo paskelbta 13 minutes, ne 20:00 UTC
Vėjas 3 kt iš Rytų, svyruoja nuo Šiaurės/Šiaurės Rytų ir Rytų/Pietryčių
Temperatūra 24°C
Drėgmė 94%
Slėgis 1007 hPa
Matomumas 10 km arba daugiau
Išsisklaidę debesys ne aukštis 1800 ft
Apsiniaukę ne aukštis 8000 ft

METAR: RPLB 202000Z 08003KT 030V120 9999 SCT018 OVC080 24/23 Q1007 NOSIG RMK A2974

Laikas: 04:13 (20:13 UTC)

Prognozė

Ataskaita buvo paskelbta 3 valandos ir 13 minutes, ne 17:00 UTC
Prognozė galioja nuo 20 metu 18 UTC su 21 metu 18 UTC
Vėjas 7 kt iš Pietų
Matomumas: 9000 m
Išsisklaidę debesys ne aukštis 1800 ft
Su prošvaistėmis ne aukštis 8000 ft
lietus
Laikinai
nuo 20 metu 18 UTC su 20 metu 24 UTC
Vėjas 10 kt iš Vakarų su gūsio iki 20 kt
Matomumas: 6000 m
Su prošvaistėmis ne aukštis 1600 ft
Apsiniaukę ne aukštis 7000 ft
lietus

TAF: RPLB 201700Z 2018/2118 17007KT 9000 -RA SCT018 BKN080 TX29/2106Z TN24/2021Z TEMPO 2018/2024 28010G20KT 6000 RA BKN016 OVC070

Orai ataskaitas ir orų prognozės (METAR, TAF).

turimą stotys yra geltonos ir raudonos taškus žemėlapyje.

Perkelti pele per norėdami pamatyti stoties vardą.

Tada spustelėkite, norėdami matyti oro stebėjimo ir prognozės.

Norėdami pakeisti žemėlapį: spustelėkite ant žalios mygtukų su juodo kryžiaus žemyn,; žalią mygtuką su brūkšneliu, jei norite nutolinti; arba žalių rodyklių gretimoms žemėlapius.


METAR-TAF: